Batiscan, Canada
Current Conditions -  °F | °C
As of 4:30 AM on Friday 24 Oct 2014 (Local Time) from CYRQ Reporting Station
Overcast Overcast  
Wind Chill: 39°   Ceiling: 6500
Heat Index: 43°   Visibility: 9mi
Dew Point: 41°   Wind: 7mph
Humidity: 93%   Direction: 30°NNE
Pressure: 29.9"   Gusts: NA
Location:  46.5°N, 72.25°W
Report Text: CYRQ 240830Z AUTO 03006KT 9SM OVC065 06/05 A2990 RMK SLP126
Loading
Personal Weather Stations






























Interactive Weather Map
Tropical Storm Tracking
New forecast layout! Learn more

10-Day Weather Forecast

Advertisements
Track Severe Weather on mobile